Batesville, Arkansas
Current Conditions -  °F | °C
As of 7:15 AM on Thursday 23 Oct 2014 (Local Time) from KBVX Reporting Station
Clear Clear  
Wind Chill: 37°   Ceiling: Unl
Heat Index: 41°   Visibility: 8mi
Dew Point: 39°   Wind: 6mph
Humidity: 93%   Direction: 270°W
Pressure: 30.22"   Gusts: NA
Location:  35.77°N, 91.65°W
Report Text: KBVX 231215Z AUTO 27005KT 8SM CLR 05/04 A3022 RMK AO1
Loading
Personal Weather Stations






























Interactive Weather Map
Tropical Storm Tracking
New forecast layout! Learn more

10-Day Weather Forecast

Advertisements
Track Severe Weather on mobile